sensor_id;sensor_type;location;lat;lon;timestamp;temperature;humidity
3684;DHT22;1858;48.716;9.648;2023-08-12T00:02:04;20.30;99.90
3684;DHT22;1858;48.716;9.648;2023-08-12T00:04:50;20.20;99.90
3684;DHT22;1858;48.716;9.648;2023-08-12T00:07:36;20.10;99.90
3684;DHT22;1858;48.716;9.648;2023-08-12T00:10:43;20.00;99.90
3684;DHT22;1858;48.716;9.648;2023-08-12T00:13:28;20.00;1.00
3684;DHT22;1858;48.716;9.648;2023-08-12T00:16:14;20.00;1.00
3684;DHT22;1858;48.716;9.648;2023-08-12T00:18:59;19.90;1.00
3684;DHT22;1858;48.716;9.648;2023-08-12T00:21:46;19.80;1.00
3684;DHT22;1858;48.716;9.648;2023-08-12T00:24:32;19.90;1.00
3684;DHT22;1858;48.716;9.648;2023-08-12T00:27:17;19.80;1.00
3684;DHT22;1858;48.716;9.648;2023-08-12T00:30:03;19.80;1.00
3684;DHT22;1858;48.716;9.648;2023-08-12T00:32:49;19.70;1.00
3684;DHT22;1858;48.716;9.648;2023-08-12T00:35:35;19.70;1.00
3684;DHT22;1858;48.716;9.648;2023-08-12T00:38:20;19.60;1.00
3684;DHT22;1858;48.716;9.648;2023-08-12T00:41:06;19.60;1.00
3684;DHT22;1858;48.716;9.648;2023-08-12T00:46:56;19.50;1.00
3684;DHT22;1858;48.716;9.648;2023-08-12T00:49:43;19.40;25.00
3684;DHT22;1858;48.716;9.648;2023-08-12T00:52:30;19.30;93.40
3684;DHT22;1858;48.716;9.648;2023-08-12T00:55:16;19.40;46.30
3684;DHT22;1858;48.716;9.648;2023-08-12T00:58:02;19.30;20.40
3684;DHT22;1858;48.716;9.648;2023-08-12T01:00:48;19.30;20.10
3684;DHT22;1858;48.716;9.648;2023-08-12T01:03:34;19.30;35.50
3684;DHT22;1858;48.716;9.648;2023-08-12T01:06:20;19.20;29.90
3684;DHT22;1858;48.716;9.648;2023-08-12T01:09:05;19.20;39.50
3684;DHT22;1858;48.716;9.648;2023-08-12T01:11:57;19.10;66.10
3684;DHT22;1858;48.716;9.648;2023-08-12T01:14:45;19.10;77.80
3684;DHT22;1858;48.716;9.648;2023-08-12T01:17:31;19.10;99.90
3684;DHT22;1858;48.716;9.648;2023-08-12T01:20:23;19.10;99.90
3684;DHT22;1858;48.716;9.648;2023-08-12T01:23:13;19.00;99.90
3684;DHT22;1858;48.716;9.648;2023-08-12T01:25:59;19.00;99.90
3684;DHT22;1858;48.716;9.648;2023-08-12T01:28:45;18.90;99.90
3684;DHT22;1858;48.716;9.648;2023-08-12T01:31:35;18.90;99.90
3684;DHT22;1858;48.716;9.648;2023-08-12T01:34:27;18.80;99.90
3684;DHT22;1858;48.716;9.648;2023-08-12T01:37:08;18.80;99.90
3684;DHT22;1858;48.716;9.648;2023-08-12T01:39:55;18.70;99.90
3684;DHT22;1858;48.716;9.648;2023-08-12T01:42:42;18.70;99.90
3684;DHT22;1858;48.716;9.648;2023-08-12T01:45:29;18.60;99.90
3684;DHT22;1858;48.716;9.648;2023-08-12T01:48:14;18.60;99.90
3684;DHT22;1858;48.716;9.648;2023-08-12T01:51:01;18.60;1.00
3684;DHT22;1858;48.716;9.648;2023-08-12T01:53:48;18.50;1.00
3684;DHT22;1858;48.716;9.648;2023-08-12T01:56:33;18.40;1.00
3684;DHT22;1858;48.716;9.648;2023-08-12T01:59:19;18.40;1.00
3684;DHT22;1858;48.716;9.648;2023-08-12T02:02:05;18.40;1.00
3684;DHT22;1858;48.716;9.648;2023-08-12T02:04:51;18.30;1.00
3684;DHT22;1858;48.716;9.648;2023-08-12T02:07:36;18.30;1.00
3684;DHT22;1858;48.716;9.648;2023-08-12T02:10:22;18.30;1.00
3684;DHT22;1858;48.716;9.648;2023-08-12T02:13:08;18.20;1.00
3684;DHT22;1858;48.716;9.648;2023-08-12T02:15:53;18.20;1.00
3684;DHT22;1858;48.716;9.648;2023-08-12T02:18:39;18.10;19.00
3684;DHT22;1858;48.716;9.648;2023-08-12T02:21:25;18.10;39.70
3684;DHT22;1858;48.716;9.648;2023-08-12T02:24:10;18.10;90.30
3684;DHT22;1858;48.716;9.648;2023-08-12T02:26:56;18.10;69.30
3684;DHT22;1858;48.716;9.648;2023-08-12T02:29:42;18.10;35.50
3684;DHT22;1858;48.716;9.648;2023-08-12T02:32:28;18.10;42.30
3684;DHT22;1858;48.716;9.648;2023-08-12T02:35:13;18.10;79.90
3684;DHT22;1858;48.716;9.648;2023-08-12T02:37:59;18.00;99.90
3684;DHT22;1858;48.716;9.648;2023-08-12T02:40:47;18.00;99.90
3684;DHT22;1858;48.716;9.648;2023-08-12T02:43:32;18.00;99.90
3684;DHT22;1858;48.716;9.648;2023-08-12T02:46:18;18.00;99.90
3684;DHT22;1858;48.716;9.648;2023-08-12T02:49:04;18.10;99.90
3684;DHT22;1858;48.716;9.648;2023-08-12T02:51:49;18.10;99.90
3684;DHT22;1858;48.716;9.648;2023-08-12T02:54:35;18.20;99.90
3684;DHT22;1858;48.716;9.648;2023-08-12T02:57:20;18.30;99.90
3684;DHT22;1858;48.716;9.648;2023-08-12T03:00:06;18.40;99.90
3684;DHT22;1858;48.716;9.648;2023-08-12T03:02:52;18.50;99.90
3684;DHT22;1858;48.716;9.648;2023-08-12T03:08:43;18.60;37.90
3684;DHT22;1858;48.716;9.648;2023-08-12T03:11:30;18.60;8.20
3684;DHT22;1858;48.716;9.648;2023-08-12T03:14:16;18.50;1.00
3684;DHT22;1858;48.716;9.648;2023-08-12T03:17:01;18.50;1.00
3684;DHT22;1858;48.716;9.648;2023-08-12T03:19:48;18.50;1.00
3684;DHT22;1858;48.716;9.648;2023-08-12T03:25:39;18.70;1.00
3684;DHT22;1858;48.716;9.648;2023-08-12T03:28:25;18.70;1.00
3684;DHT22;1858;48.716;9.648;2023-08-12T03:31:11;18.70;1.00
3684;DHT22;1858;48.716;9.648;2023-08-12T03:33:56;18.80;1.00
3684;DHT22;1858;48.716;9.648;2023-08-12T03:36:42;18.80;1.00
3684;DHT22;1858;48.716;9.648;2023-08-12T03:39:28;18.80;1.00
3684;DHT22;1858;48.716;9.648;2023-08-12T03:42:13;18.80;1.00
3684;DHT22;1858;48.716;9.648;2023-08-12T03:45:01;18.80;99.90
3684;DHT22;1858;48.716;9.648;2023-08-12T03:47:46;18.80;99.90
3684;DHT22;1858;48.716;9.648;2023-08-12T03:50:36;18.80;99.90
3684;DHT22;1858;48.716;9.648;2023-08-12T03:53:20;18.80;99.90
3684;DHT22;1858;48.716;9.648;2023-08-12T03:56:05;18.80;99.90
3684;DHT22;1858;48.716;9.648;2023-08-12T03:58:51;18.90;99.90
3684;DHT22;1858;48.716;9.648;2023-08-12T04:01:37;18.90;99.90
3684;DHT22;1858;48.716;9.648;2023-08-12T04:04:22;18.80;99.90
3684;DHT22;1858;48.716;9.648;2023-08-12T04:07:08;18.80;99.90
3684;DHT22;1858;48.716;9.648;2023-08-12T04:09:54;18.80;99.90
3684;DHT22;1858;48.716;9.648;2023-08-12T04:12:40;18.90;99.90
3684;DHT22;1858;48.716;9.648;2023-08-12T04:15:26;18.90;99.90
3684;DHT22;1858;48.716;9.648;2023-08-12T04:18:11;19.00;99.90
3684;DHT22;1858;48.716;9.648;2023-08-12T04:20:57;19.10;99.90
3684;DHT22;1858;48.716;9.648;2023-08-12T04:23:42;19.10;99.90
3684;DHT22;1858;48.716;9.648;2023-08-12T04:26:28;19.20;99.90
3684;DHT22;1858;48.716;9.648;2023-08-12T04:29:13;19.30;99.90
3684;DHT22;1858;48.716;9.648;2023-08-12T04:31:59;19.40;99.90
3684;DHT22;1858;48.716;9.648;2023-08-12T04:34:45;19.50;99.90
3684;DHT22;1858;48.716;9.648;2023-08-12T04:37:31;19.50;99.90
3684;DHT22;1858;48.716;9.648;2023-08-12T04:40:17;19.60;99.90
3684;DHT22;1858;48.716;9.648;2023-08-12T04:43:03;19.70;99.90
3684;DHT22;1858;48.716;9.648;2023-08-12T04:45:48;19.70;90.60
3684;DHT22;1858;48.716;9.648;2023-08-12T04:48:34;19.70;1.00
3684;DHT22;1858;48.716;9.648;2023-08-12T04:51:19;19.80;1.00
3684;DHT22;1858;48.716;9.648;2023-08-12T04:54:05;19.80;1.00
3684;DHT22;1858;48.716;9.648;2023-08-12T04:56:52;19.80;1.00
3684;DHT22;1858;48.716;9.648;2023-08-12T04:59:37;19.90;1.00
3684;DHT22;1858;48.716;9.648;2023-08-12T05:05:28;20.00;1.00
3684;DHT22;1858;48.716;9.648;2023-08-12T05:08:13;20.00;1.00
3684;DHT22;1858;48.716;9.648;2023-08-12T05:10:59;20.10;1.00
3684;DHT22;1858;48.716;9.648;2023-08-12T05:13:44;20.10;1.00
3684;DHT22;1858;48.716;9.648;2023-08-12T05:16:30;20.10;1.00
3684;DHT22;1858;48.716;9.648;2023-08-12T05:19:16;20.20;1.00
3684;DHT22;1858;48.716;9.648;2023-08-12T05:22:01;20.20;1.00
3684;DHT22;1858;48.716;9.648;2023-08-12T05:24:47;20.20;1.00
3684;DHT22;1858;48.716;9.648;2023-08-12T05:27:33;20.20;1.00
3684;DHT22;1858;48.716;9.648;2023-08-12T05:30:19;20.20;1.00
3684;DHT22;1858;48.716;9.648;2023-08-12T05:33:04;20.30;1.00
3684;DHT22;1858;48.716;9.648;2023-08-12T05:35:50;20.30;1.00
3684;DHT22;1858;48.716;9.648;2023-08-12T05:38:36;20.30;1.00
3684;DHT22;1858;48.716;9.648;2023-08-12T05:41:22;20.30;1.00
3684;DHT22;1858;48.716;9.648;2023-08-12T05:44:08;20.40;1.00
3684;DHT22;1858;48.716;9.648;2023-08-12T05:46:53;20.50;1.00
3684;DHT22;1858;48.716;9.648;2023-08-12T05:49:39;20.50;1.00
3684;DHT22;1858;48.716;9.648;2023-08-12T05:52:25;20.50;1.00
3684;DHT22;1858;48.716;9.648;2023-08-12T05:55:10;20.70;1.00
3684;DHT22;1858;48.716;9.648;2023-08-12T05:57:56;20.80;1.00
3684;DHT22;1858;48.716;9.648;2023-08-12T06:00:42;21.10;1.00
3684;DHT22;1858;48.716;9.648;2023-08-12T06:03:33;21.40;99.90
3684;DHT22;1858;48.716;9.648;2023-08-12T06:06:19;21.80;99.90
3684;DHT22;1858;48.716;9.648;2023-08-12T06:09:05;22.00;99.90
3684;DHT22;1858;48.716;9.648;2023-08-12T06:11:50;22.20;66.80
3684;DHT22;1858;48.716;9.648;2023-08-12T06:14:37;22.30;1.00
3684;DHT22;1858;48.716;9.648;2023-08-12T06:17:23;22.40;3.90
3684;DHT22;1858;48.716;9.648;2023-08-12T06:20:09;22.40;1.00
3684;DHT22;1858;48.716;9.648;2023-08-12T06:22:55;22.40;8.70
3684;DHT22;1858;48.716;9.648;2023-08-12T06:25:40;22.40;1.00
3684;DHT22;1858;48.716;9.648;2023-08-12T06:28:27;22.60;1.00
3684;DHT22;1858;48.716;9.648;2023-08-12T06:31:13;22.80;1.00
3684;DHT22;1858;48.716;9.648;2023-08-12T06:33:59;22.90;1.00
3684;DHT22;1858;48.716;9.648;2023-08-12T06:36:45;23.00;1.00
3684;DHT22;1858;48.716;9.648;2023-08-12T06:39:31;23.20;1.00
3684;DHT22;1858;48.716;9.648;2023-08-12T06:42:17;23.30;1.00
3684;DHT22;1858;48.716;9.648;2023-08-12T06:45:02;23.60;1.00
3684;DHT22;1858;48.716;9.648;2023-08-12T06:47:48;23.90;1.00
3684;DHT22;1858;48.716;9.648;2023-08-12T06:50:34;24.20;1.00
3684;DHT22;1858;48.716;9.648;2023-08-12T06:53:20;24.50;1.00
3684;DHT22;1858;48.716;9.648;2023-08-12T06:56:05;25.00;1.00
3684;DHT22;1858;48.716;9.648;2023-08-12T06:58:51;25.40;99.90
3684;DHT22;1858;48.716;9.648;2023-08-12T07:01:37;25.40;99.90
3684;DHT22;1858;48.716;9.648;2023-08-12T07:04:23;25.40;99.90
3684;DHT22;1858;48.716;9.648;2023-08-12T07:07:09;25.40;99.90
3684;DHT22;1858;48.716;9.648;2023-08-12T07:09:54;25.50;99.90
3684;DHT22;1858;48.716;9.648;2023-08-12T07:12:40;25.50;99.90
3684;DHT22;1858;48.716;9.648;2023-08-12T07:15:26;25.50;99.90
3684;DHT22;1858;48.716;9.648;2023-08-12T07:18:11;25.60;99.90
3684;DHT22;1858;48.716;9.648;2023-08-12T07:20:57;25.60;99.90
3684;DHT22;1858;48.716;9.648;2023-08-12T07:23:44;25.90;99.90
3684;DHT22;1858;48.716;9.648;2023-08-12T07:26:30;26.10;99.90
3684;DHT22;1858;48.716;9.648;2023-08-12T07:29:16;26.50;99.90
3684;DHT22;1858;48.716;9.648;2023-08-12T07:32:01;26.80;99.90
3684;DHT22;1858;48.716;9.648;2023-08-12T07:34:47;27.30;99.90
3684;DHT22;1858;48.716;9.648;2023-08-12T07:37:33;29.70;99.90
3684;DHT22;1858;48.716;9.648;2023-08-12T07:40:18;31.60;55.10
3684;DHT22;1858;48.716;9.648;2023-08-12T07:43:04;32.80;1.00
3684;DHT22;1858;48.716;9.648;2023-08-12T07:45:53;34.10;1.00
3684;DHT22;1858;48.716;9.648;2023-08-12T07:48:59;36.50;1.00
3684;DHT22;1858;48.716;9.648;2023-08-12T07:51:45;37.60;1.00
3684;DHT22;1858;48.716;9.648;2023-08-12T07:54:30;39.10;1.00
3684;DHT22;1858;48.716;9.648;2023-08-12T08:00:21;41.20;1.00
3684;DHT22;1858;48.716;9.648;2023-08-12T08:03:07;40.10;1.00
3684;DHT22;1858;48.716;9.648;2023-08-12T08:05:53;39.20;1.00
3684;DHT22;1858;48.716;9.648;2023-08-12T08:08:38;38.30;1.00
3684;DHT22;1858;48.716;9.648;2023-08-12T08:11:24;37.20;1.00
3684;DHT22;1858;48.716;9.648;2023-08-12T08:14:10;36.40;1.00
3684;DHT22;1858;48.716;9.648;2023-08-12T08:16:55;36.70;1.00
3684;DHT22;1858;48.716;9.648;2023-08-12T08:19:40;39.00;1.00
3684;DHT22;1858;48.716;9.648;2023-08-12T08:22:26;40.10;1.00
3684;DHT22;1858;48.716;9.648;2023-08-12T08:25:12;39.70;1.00
3684;DHT22;1858;48.716;9.648;2023-08-12T08:27:57;39.60;1.00
3684;DHT22;1858;48.716;9.648;2023-08-12T08:30:43;40.20;1.00
3684;DHT22;1858;48.716;9.648;2023-08-12T08:33:28;39.90;1.00
3684;DHT22;1858;48.716;9.648;2023-08-12T08:36:14;39.90;1.00
3684;DHT22;1858;48.716;9.648;2023-08-12T08:39:01;40.60;1.00
3684;DHT22;1858;48.716;9.648;2023-08-12T08:41:47;42.50;1.00
3684;DHT22;1858;48.716;9.648;2023-08-12T08:44:33;44.40;1.00
3684;DHT22;1858;48.716;9.648;2023-08-12T08:47:19;45.80;99.90
3684;DHT22;1858;48.716;9.648;2023-08-12T08:50:06;46.60;99.90
3684;DHT22;1858;48.716;9.648;2023-08-12T08:52:54;47.60;99.90
3684;DHT22;1858;48.716;9.648;2023-08-12T08:55:41;47.20;99.90
3684;DHT22;1858;48.716;9.648;2023-08-12T09:01:31;45.30;99.90
3684;DHT22;1858;48.716;9.648;2023-08-12T09:04:17;45.40;99.90
3684;DHT22;1858;48.716;9.648;2023-08-12T09:07:04;45.30;99.90
3684;DHT22;1858;48.716;9.648;2023-08-12T09:09:50;44.30;99.90
3684;DHT22;1858;48.716;9.648;2023-08-12T09:12:41;43.80;99.90
3684;DHT22;1858;48.716;9.648;2023-08-12T09:15:27;43.80;99.90
3684;DHT22;1858;48.716;9.648;2023-08-12T09:18:13;43.70;99.90
3684;DHT22;1858;48.716;9.648;2023-08-12T09:20:58;43.30;99.90
3684;DHT22;1858;48.716;9.648;2023-08-12T09:23:44;43.00;99.90
3684;DHT22;1858;48.716;9.648;2023-08-12T09:26:30;43.50;99.90
3684;DHT22;1858;48.716;9.648;2023-08-12T09:29:16;43.90;99.90
3684;DHT22;1858;48.716;9.648;2023-08-12T09:32:05;44.70;99.90
3684;DHT22;1858;48.716;9.648;2023-08-12T09:34:53;44.80;99.90
3684;DHT22;1858;48.716;9.648;2023-08-12T09:37:39;44.40;99.90
3684;DHT22;1858;48.716;9.648;2023-08-12T09:40:24;44.80;99.90
3684;DHT22;1858;48.716;9.648;2023-08-12T09:43:10;46.40;99.90
3684;DHT22;1858;48.716;9.648;2023-08-12T09:45:56;47.80;99.90
3684;DHT22;1858;48.716;9.648;2023-08-12T09:48:43;48.70;99.90
3684;DHT22;1858;48.716;9.648;2023-08-12T09:51:33;49.20;99.90
3684;DHT22;1858;48.716;9.648;2023-08-12T09:54:21;49.70;99.90
3684;DHT22;1858;48.716;9.648;2023-08-12T09:57:07;50.00;99.90
3684;DHT22;1858;48.716;9.648;2023-08-12T09:59:53;50.40;99.90
3684;DHT22;1858;48.716;9.648;2023-08-12T10:02:40;51.00;99.90
3684;DHT22;1858;48.716;9.648;2023-08-12T10:05:31;51.00;99.90
3684;DHT22;1858;48.716;9.648;2023-08-12T10:08:17;49.30;99.90
3684;DHT22;1858;48.716;9.648;2023-08-12T10:11:03;47.50;99.90
3684;DHT22;1858;48.716;9.648;2023-08-12T10:13:49;47.10;99.90
3684;DHT22;1858;48.716;9.648;2023-08-12T10:16:34;46.30;99.90
3684;DHT22;1858;48.716;9.648;2023-08-12T10:19:20;45.60;99.90
3684;DHT22;1858;48.716;9.648;2023-08-12T10:22:06;44.80;99.90
3684;DHT22;1858;48.716;9.648;2023-08-12T10:24:53;43.90;99.90
3684;DHT22;1858;48.716;9.648;2023-08-12T10:27:39;42.50;99.90
3684;DHT22;1858;48.716;9.648;2023-08-12T10:30:27;41.50;99.90
3684;DHT22;1858;48.716;9.648;2023-08-12T10:33:11;41.30;99.90
3684;DHT22;1858;48.716;9.648;2023-08-12T10:35:58;41.60;99.90
3684;DHT22;1858;48.716;9.648;2023-08-12T10:38:44;41.80;99.90
3684;DHT22;1858;48.716;9.648;2023-08-12T10:44:39;41.10;99.90
3684;DHT22;1858;48.716;9.648;2023-08-12T10:47:27;40.50;99.90
3684;DHT22;1858;48.716;9.648;2023-08-12T10:50:17;40.10;99.90
3684;DHT22;1858;48.716;9.648;2023-08-12T10:53:26;39.60;99.90
3684;DHT22;1858;48.716;9.648;2023-08-12T10:56:16;39.30;99.90
3684;DHT22;1858;48.716;9.648;2023-08-12T10:59:01;39.40;99.90
3684;DHT22;1858;48.716;9.648;2023-08-12T11:01:47;39.30;99.90
3684;DHT22;1858;48.716;9.648;2023-08-12T11:04:36;39.50;99.90
3684;DHT22;1858;48.716;9.648;2023-08-12T11:07:19;40.00;99.90
3684;DHT22;1858;48.716;9.648;2023-08-12T11:10:19;40.50;99.90
3684;DHT22;1858;48.716;9.648;2023-08-12T11:13:05;41.10;99.90
3684;DHT22;1858;48.716;9.648;2023-08-12T11:15:52;41.30;99.90
3684;DHT22;1858;48.716;9.648;2023-08-12T11:18:37;40.90;99.90
3684;DHT22;1858;48.716;9.648;2023-08-12T11:21:24;40.50;99.90
3684;DHT22;1858;48.716;9.648;2023-08-12T11:24:11;39.80;99.90
3684;DHT22;1858;48.716;9.648;2023-08-12T11:26:57;39.30;99.90
3684;DHT22;1858;48.716;9.648;2023-08-12T11:29:43;38.70;99.90
3684;DHT22;1858;48.716;9.648;2023-08-12T11:32:28;38.60;99.90
3684;DHT22;1858;48.716;9.648;2023-08-12T11:35:14;38.60;99.90
3684;DHT22;1858;48.716;9.648;2023-08-12T11:38:00;38.90;99.90
3684;DHT22;1858;48.716;9.648;2023-08-12T11:40:46;38.80;99.90
3684;DHT22;1858;48.716;9.648;2023-08-12T11:43:32;38.70;99.90
3684;DHT22;1858;48.716;9.648;2023-08-12T11:46:17;38.40;99.90
3684;DHT22;1858;48.716;9.648;2023-08-12T11:49:03;37.90;1.00
3684;DHT22;1858;48.716;9.648;2023-08-12T11:51:49;37.40;99.90
3684;DHT22;1858;48.716;9.648;2023-08-12T11:54:34;37.10;99.90
3684;DHT22;1858;48.716;9.648;2023-08-12T11:57:21;37.00;99.90
3684;DHT22;1858;48.716;9.648;2023-08-12T12:00:08;36.80;99.90
3684;DHT22;1858;48.716;9.648;2023-08-12T12:02:56;36.50;99.90
3684;DHT22;1858;48.716;9.648;2023-08-12T12:05:42;36.20;1.00
3684;DHT22;1858;48.716;9.648;2023-08-12T12:11:57;36.00;1.00
3684;DHT22;1858;48.716;9.648;2023-08-12T12:14:42;35.90;1.00
3684;DHT22;1858;48.716;9.648;2023-08-12T12:17:28;35.90;1.00
3684;DHT22;1858;48.716;9.648;2023-08-12T12:20:13;36.00;99.90
3684;DHT22;1858;48.716;9.648;2023-08-12T12:23:04;36.20;99.90
3684;DHT22;1858;48.716;9.648;2023-08-12T12:26:05;36.40;99.90
3684;DHT22;1858;48.716;9.648;2023-08-12T12:28:51;36.60;99.90
3684;DHT22;1858;48.716;9.648;2023-08-12T12:31:37;36.90;99.90
3684;DHT22;1858;48.716;9.648;2023-08-12T12:34:23;36.80;99.90
3684;DHT22;1858;48.716;9.648;2023-08-12T12:37:09;36.50;99.90
3684;DHT22;1858;48.716;9.648;2023-08-12T12:39:54;36.00;99.90
3684;DHT22;1858;48.716;9.648;2023-08-12T12:42:39;35.70;99.90
3684;DHT22;1858;48.716;9.648;2023-08-12T12:45:25;35.40;99.90
3684;DHT22;1858;48.716;9.648;2023-08-12T12:48:11;35.00;99.90
3684;DHT22;1858;48.716;9.648;2023-08-12T12:50:56;34.60;99.90
3684;DHT22;1858;48.716;9.648;2023-08-12T12:53:42;34.40;99.90
3684;DHT22;1858;48.716;9.648;2023-08-12T12:56:27;34.30;99.90
3684;DHT22;1858;48.716;9.648;2023-08-12T12:59:13;34.10;99.90
3684;DHT22;1858;48.716;9.648;2023-08-12T13:02:00;33.60;99.90
3684;DHT22;1858;48.716;9.648;2023-08-12T13:04:46;33.10;1.00
3684;DHT22;1858;48.716;9.648;2023-08-12T13:07:34;32.30;1.00
3684;DHT22;1858;48.716;9.648;2023-08-12T13:10:20;31.10;1.00
3684;DHT22;1858;48.716;9.648;2023-08-12T13:13:05;29.70;1.00
3684;DHT22;1858;48.716;9.648;2023-08-12T13:15:51;28.70;13.90
3684;DHT22;1858;48.716;9.648;2023-08-12T13:18:37;27.90;99.90
3684;DHT22;1858;48.716;9.648;2023-08-12T13:21:23;27.30;99.90
3684;DHT22;1858;48.716;9.648;2023-08-12T13:24:08;26.80;1.00
3684;DHT22;1858;48.716;9.648;2023-08-12T13:26:54;26.40;99.90
3684;DHT22;1858;48.716;9.648;2023-08-12T13:29:40;25.90;1.00
3684;DHT22;1858;48.716;9.648;2023-08-12T13:32:25;25.50;1.00
3684;DHT22;1858;48.716;9.648;2023-08-12T13:35:11;25.20;1.00
3684;DHT22;1858;48.716;9.648;2023-08-12T13:37:57;24.80;1.00
3684;DHT22;1858;48.716;9.648;2023-08-12T13:40:42;24.60;1.00
3684;DHT22;1858;48.716;9.648;2023-08-12T13:43:28;24.40;23.70
3684;DHT22;1858;48.716;9.648;2023-08-12T13:46:14;24.40;99.90
3684;DHT22;1858;48.716;9.648;2023-08-12T13:49:00;24.40;99.90
3684;DHT22;1858;48.716;9.648;2023-08-12T13:51:46;24.40;99.90
3684;DHT22;1858;48.716;9.648;2023-08-12T13:54:31;24.50;81.10
3684;DHT22;1858;48.716;9.648;2023-08-12T13:57:17;24.50;54.90
3684;DHT22;1858;48.716;9.648;2023-08-12T14:00:03;24.60;12.00
3684;DHT22;1858;48.716;9.648;2023-08-12T14:02:51;24.60;33.00
3684;DHT22;1858;48.716;9.648;2023-08-12T14:05:36;24.70;12.30
3684;DHT22;1858;48.716;9.648;2023-08-12T14:08:22;24.60;99.90
3684;DHT22;1858;48.716;9.648;2023-08-12T14:11:08;24.70;99.90
3684;DHT22;1858;48.716;9.648;2023-08-12T14:13:53;24.80;1.00
3684;DHT22;1858;48.716;9.648;2023-08-12T14:16:39;24.80;1.00
3684;DHT22;1858;48.716;9.648;2023-08-12T14:19:25;24.80;1.00
3684;DHT22;1858;48.716;9.648;2023-08-12T14:22:10;25.00;99.90
3684;DHT22;1858;48.716;9.648;2023-08-12T14:24:56;25.20;99.90
3684;DHT22;1858;48.716;9.648;2023-08-12T14:27:41;25.50;99.90
3684;DHT22;1858;48.716;9.648;2023-08-12T14:30:27;26.00;99.90
3684;DHT22;1858;48.716;9.648;2023-08-12T14:33:12;26.30;1.00
3684;DHT22;1858;48.716;9.648;2023-08-12T14:35:58;26.70;99.90
3684;DHT22;1858;48.716;9.648;2023-08-12T14:38:44;27.10;99.90
3684;DHT22;1858;48.716;9.648;2023-08-12T14:41:30;27.30;99.90
3684;DHT22;1858;48.716;9.648;2023-08-12T14:44:15;27.60;99.90
3684;DHT22;1858;48.716;9.648;2023-08-12T14:47:01;28.00;99.90
3684;DHT22;1858;48.716;9.648;2023-08-12T14:49:48;28.30;1.00
3684;DHT22;1858;48.716;9.648;2023-08-12T14:52:34;28.40;1.00
3684;DHT22;1858;48.716;9.648;2023-08-12T14:55:20;28.50;1.00
3684;DHT22;1858;48.716;9.648;2023-08-12T14:58:05;28.30;1.00
3684;DHT22;1858;48.716;9.648;2023-08-12T15:00:51;28.30;1.00
3684;DHT22;1858;48.716;9.648;2023-08-12T15:03:37;28.30;1.00
3684;DHT22;1858;48.716;9.648;2023-08-12T15:06:22;28.20;1.00
3684;DHT22;1858;48.716;9.648;2023-08-12T15:09:08;28.00;1.00
3684;DHT22;1858;48.716;9.648;2023-08-12T15:11:54;27.90;1.00
3684;DHT22;1858;48.716;9.648;2023-08-12T15:14:40;27.70;1.00
3684;DHT22;1858;48.716;9.648;2023-08-12T15:17:26;27.50;1.00
3684;DHT22;1858;48.716;9.648;2023-08-12T15:20:12;27.50;1.00
3684;DHT22;1858;48.716;9.648;2023-08-12T15:22:57;27.40;1.00
3684;DHT22;1858;48.716;9.648;2023-08-12T15:25:43;27.30;1.00
3684;DHT22;1858;48.716;9.648;2023-08-12T15:28:29;27.20;1.00
3684;DHT22;1858;48.716;9.648;2023-08-12T15:31:15;27.20;1.00
3684;DHT22;1858;48.716;9.648;2023-08-12T15:34:00;27.20;1.00
3684;DHT22;1858;48.716;9.648;2023-08-12T15:36:46;27.20;1.00
3684;DHT22;1858;48.716;9.648;2023-08-12T15:42:36;27.30;1.00
3684;DHT22;1858;48.716;9.648;2023-08-12T15:45:22;27.20;1.00
3684;DHT22;1858;48.716;9.648;2023-08-12T15:48:08;27.10;1.00
3684;DHT22;1858;48.716;9.648;2023-08-12T15:50:53;27.10;1.00
3684;DHT22;1858;48.716;9.648;2023-08-12T15:53:39;27.00;1.00
3684;DHT22;1858;48.716;9.648;2023-08-12T15:56:25;26.90;21.30
3684;DHT22;1858;48.716;9.648;2023-08-12T15:59:10;26.90;1.00
3684;DHT22;1858;48.716;9.648;2023-08-12T16:01:56;27.10;1.00
3684;DHT22;1858;48.716;9.648;2023-08-12T16:04:42;27.30;1.00
3684;DHT22;1858;48.716;9.648;2023-08-12T16:07:27;27.30;1.00
3684;DHT22;1858;48.716;9.648;2023-08-12T16:10:13;27.10;1.00
3684;DHT22;1858;48.716;9.648;2023-08-12T16:12:58;26.90;1.00
3684;DHT22;1858;48.716;9.648;2023-08-12T16:15:44;26.70;1.00
3684;DHT22;1858;48.716;9.648;2023-08-12T16:18:30;26.50;1.00
3684;DHT22;1858;48.716;9.648;2023-08-12T16:21:16;26.30;6.10
3684;DHT22;1858;48.716;9.648;2023-08-12T16:27:06;26.00;99.90
3684;DHT22;1858;48.716;9.648;2023-08-12T16:29:51;25.90;99.90
3684;DHT22;1858;48.716;9.648;2023-08-12T16:32:37;25.80;99.90
3684;DHT22;1858;48.716;9.648;2023-08-12T16:35:23;25.60;99.90
3684;DHT22;1858;48.716;9.648;2023-08-12T16:38:08;25.60;1.00
3684;DHT22;1858;48.716;9.648;2023-08-12T16:40:54;25.50;1.00
3684;DHT22;1858;48.716;9.648;2023-08-12T16:43:40;25.60;1.00
3684;DHT22;1858;48.716;9.648;2023-08-12T16:46:25;25.50;1.00
3684;DHT22;1858;48.716;9.648;2023-08-12T16:49:11;25.60;1.00
3684;DHT22;1858;48.716;9.648;2023-08-12T16:51:57;25.50;1.00
3684;DHT22;1858;48.716;9.648;2023-08-12T16:54:42;25.50;1.00
3684;DHT22;1858;48.716;9.648;2023-08-12T16:57:28;25.40;1.00
3684;DHT22;1858;48.716;9.648;2023-08-12T17:00:14;25.30;1.00
3684;DHT22;1858;48.716;9.648;2023-08-12T17:03:00;25.20;1.00
3684;DHT22;1858;48.716;9.648;2023-08-12T17:05:45;25.10;1.00
3684;DHT22;1858;48.716;9.648;2023-08-12T17:08:31;25.10;1.00
3684;DHT22;1858;48.716;9.648;2023-08-12T17:11:17;25.00;33.30
3684;DHT22;1858;48.716;9.648;2023-08-12T17:14:02;24.90;99.90
3684;DHT22;1858;48.716;9.648;2023-08-12T17:16:50;24.80;99.90
3684;DHT22;1858;48.716;9.648;2023-08-12T17:19:35;24.60;1.00
3684;DHT22;1858;48.716;9.648;2023-08-12T17:22:22;24.40;99.90
3684;DHT22;1858;48.716;9.648;2023-08-12T17:25:08;24.30;1.00
3684;DHT22;1858;48.716;9.648;2023-08-12T17:27:53;24.20;97.10
3684;DHT22;1858;48.716;9.648;2023-08-12T17:30:39;24.10;99.90
3684;DHT22;1858;48.716;9.648;2023-08-12T17:33:25;24.10;99.90
3684;DHT22;1858;48.716;9.648;2023-08-12T17:36:10;24.00;99.90
3684;DHT22;1858;48.716;9.648;2023-08-12T17:38:56;24.10;99.90
3684;DHT22;1858;48.716;9.648;2023-08-12T17:41:41;24.10;99.90
3684;DHT22;1858;48.716;9.648;2023-08-12T17:44:27;24.20;1.40
3684;DHT22;1858;48.716;9.648;2023-08-12T17:47:13;24.30;99.90
3684;DHT22;1858;48.716;9.648;2023-08-12T17:49:59;24.50;99.90
3684;DHT22;1858;48.716;9.648;2023-08-12T17:52:45;24.60;99.90
3684;DHT22;1858;48.716;9.648;2023-08-12T17:55:31;24.70;99.90
3684;DHT22;1858;48.716;9.648;2023-08-12T17:58:16;24.70;22.90
3684;DHT22;1858;48.716;9.648;2023-08-12T18:01:02;24.70;1.00
3684;DHT22;1858;48.716;9.648;2023-08-12T18:03:48;24.70;99.90
3684;DHT22;1858;48.716;9.648;2023-08-12T18:06:33;24.70;99.90
3684;DHT22;1858;48.716;9.648;2023-08-12T18:09:19;24.70;99.90
3684;DHT22;1858;48.716;9.648;2023-08-12T18:12:05;24.70;99.90
3684;DHT22;1858;48.716;9.648;2023-08-12T18:14:50;24.70;99.90
3684;DHT22;1858;48.716;9.648;2023-08-12T18:17:36;24.60;99.90
3684;DHT22;1858;48.716;9.648;2023-08-12T18:20:22;24.60;99.90
3684;DHT22;1858;48.716;9.648;2023-08-12T18:23:08;24.60;1.00
3684;DHT22;1858;48.716;9.648;2023-08-12T18:25:53;24.50;1.00
3684;DHT22;1858;48.716;9.648;2023-08-12T18:28:39;24.50;1.00
3684;DHT22;1858;48.716;9.648;2023-08-12T18:31:24;24.50;1.00
3684;DHT22;1858;48.716;9.648;2023-08-12T18:34:10;24.60;1.00
3684;DHT22;1858;48.716;9.648;2023-08-12T18:36:56;24.40;1.00
3684;DHT22;1858;48.716;9.648;2023-08-12T18:39:42;24.30;1.00
3684;DHT22;1858;48.716;9.648;2023-08-12T18:42:29;24.20;1.00
3684;DHT22;1858;48.716;9.648;2023-08-12T18:45:15;24.10;1.40